sensor_id;sensor_type;location;lat;lon;timestamp;temperature;humidity
52125;DHT22;38119;52.710;6.398;2023-07-02T00:00:05;16.60;99.90
52125;DHT22;38119;52.710;6.398;2023-07-02T00:02:31;16.60;99.90
52125;DHT22;38119;52.710;6.398;2023-07-02T00:04:57;16.60;99.90
52125;DHT22;38119;52.710;6.398;2023-07-02T00:07:23;16.60;99.90
52125;DHT22;38119;52.710;6.398;2023-07-02T00:09:51;16.60;99.90
52125;DHT22;38119;52.710;6.398;2023-07-02T00:12:17;16.60;99.90
52125;DHT22;38119;52.710;6.398;2023-07-02T00:14:42;16.50;99.90
52125;DHT22;38119;52.710;6.398;2023-07-02T00:17:08;16.50;99.90
52125;DHT22;38119;52.710;6.398;2023-07-02T00:19:38;16.60;99.90
52125;DHT22;38119;52.710;6.398;2023-07-02T00:22:08;16.60;99.90
52125;DHT22;38119;52.710;6.398;2023-07-02T00:24:34;16.50;99.90
52125;DHT22;38119;52.710;6.398;2023-07-02T00:27:00;16.60;99.90
52125;DHT22;38119;52.710;6.398;2023-07-02T00:29:25;16.60;99.90
52125;DHT22;38119;52.710;6.398;2023-07-02T00:31:51;16.50;99.90
52125;DHT22;38119;52.710;6.398;2023-07-02T00:34:18;16.60;99.90
52125;DHT22;38119;52.710;6.398;2023-07-02T00:36:44;16.60;99.90
52125;DHT22;38119;52.710;6.398;2023-07-02T00:39:10;16.60;99.90
52125;DHT22;38119;52.710;6.398;2023-07-02T00:41:37;16.60;99.90
52125;DHT22;38119;52.710;6.398;2023-07-02T00:44:03;16.60;99.90
52125;DHT22;38119;52.710;6.398;2023-07-02T00:46:30;16.50;99.90
52125;DHT22;38119;52.710;6.398;2023-07-02T00:48:56;16.50;99.90
52125;DHT22;38119;52.710;6.398;2023-07-02T00:51:26;16.50;99.90
52125;DHT22;38119;52.710;6.398;2023-07-02T00:53:55;16.50;99.90
52125;DHT22;38119;52.710;6.398;2023-07-02T00:56:22;16.40;99.90
52125;DHT22;38119;52.710;6.398;2023-07-02T00:58:49;16.40;99.90
52125;DHT22;38119;52.710;6.398;2023-07-02T01:01:20;16.40;99.90
52125;DHT22;38119;52.710;6.398;2023-07-02T01:04:01;16.40;99.90
52125;DHT22;38119;52.710;6.398;2023-07-02T01:06:36;16.30;99.90
52125;DHT22;38119;52.710;6.398;2023-07-02T01:09:05;16.30;99.90
52125;DHT22;38119;52.710;6.398;2023-07-02T01:16:52;16.10;99.90
52125;DHT22;38119;52.710;6.398;2023-07-02T01:22:10;16.00;99.90
52125;DHT22;38119;52.710;6.398;2023-07-02T01:24:38;16.00;99.90
52125;DHT22;38119;52.710;6.398;2023-07-02T01:27:04;16.00;99.90
52125;DHT22;38119;52.710;6.398;2023-07-02T01:29:31;16.00;99.90
52125;DHT22;38119;52.710;6.398;2023-07-02T01:31:57;15.90;99.90
52125;DHT22;38119;52.710;6.398;2023-07-02T01:34:22;16.00;99.90
52125;DHT22;38119;52.710;6.398;2023-07-02T01:36:48;15.90;99.90
52125;DHT22;38119;52.710;6.398;2023-07-02T01:39:14;15.80;99.90
52125;DHT22;38119;52.710;6.398;2023-07-02T01:41:45;15.80;99.90
52125;DHT22;38119;52.710;6.398;2023-07-02T01:44:11;15.70;99.90
52125;DHT22;38119;52.710;6.398;2023-07-02T01:46:37;15.60;99.90
52125;DHT22;38119;52.710;6.398;2023-07-02T01:49:02;15.60;99.90
52125;DHT22;38119;52.710;6.398;2023-07-02T01:51:28;15.60;99.90
52125;DHT22;38119;52.710;6.398;2023-07-02T01:53:53;16.50;99.90
52125;DHT22;38119;52.710;6.398;2023-07-02T01:56:19;15.50;99.90
52125;DHT22;38119;52.710;6.398;2023-07-02T01:58:45;15.50;99.90
52125;DHT22;38119;52.710;6.398;2023-07-02T02:01:10;15.50;99.90
52125;DHT22;38119;52.710;6.398;2023-07-02T02:03:36;15.40;99.90
52125;DHT22;38119;52.710;6.398;2023-07-02T02:06:01;15.40;99.90
52125;DHT22;38119;52.710;6.398;2023-07-02T02:08:27;15.30;99.90
52125;DHT22;38119;52.710;6.398;2023-07-02T02:10:52;15.30;99.90
52125;DHT22;38119;52.710;6.398;2023-07-02T02:13:18;15.30;99.90
52125;DHT22;38119;52.710;6.398;2023-07-02T02:15:44;15.90;99.90
52125;DHT22;38119;52.710;6.398;2023-07-02T02:18:09;15.20;99.90
52125;DHT22;38119;52.710;6.398;2023-07-02T02:20:36;15.70;99.90
52125;DHT22;38119;52.710;6.398;2023-07-02T02:23:39;15.20;99.90
52125;DHT22;38119;52.710;6.398;2023-07-02T02:26:27;15.10;99.90
52125;DHT22;38119;52.710;6.398;2023-07-02T02:29:31;15.10;99.90
52125;DHT22;38119;52.710;6.398;2023-07-02T02:32:09;14.10;99.90
52125;DHT22;38119;52.710;6.398;2023-07-02T02:34:38;15.00;99.90
52125;DHT22;38119;52.710;6.398;2023-07-02T02:40:58;15.00;99.90
52125;DHT22;38119;52.710;6.398;2023-07-02T02:44:21;15.00;99.90
52125;DHT22;38119;52.710;6.398;2023-07-02T02:46:52;14.90;99.90
52125;DHT22;38119;52.710;6.398;2023-07-02T02:49:58;14.90;99.90
52125;DHT22;38119;52.710;6.398;2023-07-02T02:52:41;14.80;99.90
52125;DHT22;38119;52.710;6.398;2023-07-02T02:55:52;14.80;99.90
52125;DHT22;38119;52.710;6.398;2023-07-02T02:58:32;14.80;99.90
52125;DHT22;38119;52.710;6.398;2023-07-02T03:01:34;14.80;99.90
52125;DHT22;38119;52.710;6.398;2023-07-02T03:04:22;14.80;99.90
52125;DHT22;38119;52.710;6.398;2023-07-02T03:11:12;14.70;99.90
52125;DHT22;38119;52.710;6.398;2023-07-02T03:22:37;14.60;99.90
52125;DHT22;38119;52.710;6.398;2023-07-02T03:30:05;14.60;99.90
52125;DHT22;38119;52.710;6.398;2023-07-02T03:33:35;14.60;99.90
52125;DHT22;38119;52.710;6.398;2023-07-02T03:36:45;14.60;99.90
52125;DHT22;38119;52.710;6.398;2023-07-02T03:43:45;14.50;99.90
52125;DHT22;38119;52.710;6.398;2023-07-02T03:47:01;14.60;99.90
52125;DHT22;38119;52.710;6.398;2023-07-02T03:50:43;14.60;99.90
52125;DHT22;38119;52.710;6.398;2023-07-02T03:54:58;14.50;99.90
52125;DHT22;38119;52.710;6.398;2023-07-02T03:58:50;14.50;99.90
52125;DHT22;38119;52.710;6.398;2023-07-02T04:02:06;14.50;99.90
52125;DHT22;38119;52.710;6.398;2023-07-02T04:06:03;14.50;99.90
52125;DHT22;38119;52.710;6.398;2023-07-02T04:09:18;14.50;99.90
52125;DHT22;38119;52.710;6.398;2023-07-02T04:12:36;14.50;99.90
52125;DHT22;38119;52.710;6.398;2023-07-02T04:15:47;14.60;99.90
52125;DHT22;38119;52.710;6.398;2023-07-02T04:18:46;14.50;99.90
52125;DHT22;38119;52.710;6.398;2023-07-02T04:21:45;14.50;99.90
52125;DHT22;38119;52.710;6.398;2023-07-02T04:24:17;14.70;99.90
52125;DHT22;38119;52.710;6.398;2023-07-02T04:30:55;14.60;99.90
52125;DHT22;38119;52.710;6.398;2023-07-02T04:33:59;14.60;99.90
52125;DHT22;38119;52.710;6.398;2023-07-02T04:37:04;14.60;99.90
52125;DHT22;38119;52.710;6.398;2023-07-02T04:39:35;14.70;99.90
52125;DHT22;38119;52.710;6.398;2023-07-02T04:46:07;14.70;99.90
52125;DHT22;38119;52.710;6.398;2023-07-02T04:49:32;14.70;99.90
52125;DHT22;38119;52.710;6.398;2023-07-02T04:53:02;14.80;99.90
52125;DHT22;38119;52.710;6.398;2023-07-02T04:55:43;14.80;99.90
52125;DHT22;38119;52.710;6.398;2023-07-02T04:58:14;14.80;99.90
52125;DHT22;38119;52.710;6.398;2023-07-02T05:01:09;15.10;99.90
52125;DHT22;38119;52.710;6.398;2023-07-02T05:04:20;15.00;99.90
52125;DHT22;38119;52.710;6.398;2023-07-02T05:07:25;15.00;99.90
52125;DHT22;38119;52.710;6.398;2023-07-02T05:10:27;15.00;99.90
52125;DHT22;38119;52.710;6.398;2023-07-02T05:20:28;15.10;99.90
52125;DHT22;38119;52.710;6.398;2023-07-02T05:26:39;15.20;99.90
52125;DHT22;38119;52.710;6.398;2023-07-02T05:29:52;15.30;99.90
52125;DHT22;38119;52.710;6.398;2023-07-02T05:33:04;15.40;99.90
52125;DHT22;38119;52.710;6.398;2023-07-02T05:40:17;15.50;99.90
52125;DHT22;38119;52.710;6.398;2023-07-02T05:47:20;16.90;99.90
52125;DHT22;38119;52.710;6.398;2023-07-02T05:49:57;15.60;99.90
52125;DHT22;38119;52.710;6.398;2023-07-02T05:54:25;15.70;99.90
52125;DHT22;38119;52.710;6.398;2023-07-02T06:33:31;16.40;99.90
52125;DHT22;38119;52.710;6.398;2023-07-02T06:44:40;16.60;99.90
52125;DHT22;38119;52.710;6.398;2023-07-02T06:48:27;16.70;99.90
52125;DHT22;38119;52.710;6.398;2023-07-02T06:55:59;16.80;99.90
52125;DHT22;38119;52.710;6.398;2023-07-02T06:59:57;16.80;99.90
52125;DHT22;38119;52.710;6.398;2023-07-02T07:29:33;17.20;99.90
52125;DHT22;38119;52.710;6.398;2023-07-02T07:37:08;17.00;99.90
52125;DHT22;38119;52.710;6.398;2023-07-02T07:51:46;17.30;99.90
52125;DHT22;38119;52.710;6.398;2023-07-02T07:54:12;17.10;99.90
52125;DHT22;38119;52.710;6.398;2023-07-02T08:55:42;18.50;95.60
52125;DHT22;38119;52.710;6.398;2023-07-02T08:58:45;18.60;95.60
52125;DHT22;38119;52.710;6.398;2023-07-02T09:05:20;19.00;95.80
52125;DHT22;38119;52.710;6.398;2023-07-02T09:12:09;18.90;95.60
52125;DHT22;38119;52.710;6.398;2023-07-02T09:33:34;18.30;97.30
52125;DHT22;38119;52.710;6.398;2023-07-02T09:39:49;18.30;97.80
52125;DHT22;38119;52.710;6.398;2023-07-02T10:02:20;19.20;96.20
52125;DHT22;38119;52.710;6.398;2023-07-02T10:12:45;18.40;97.90
52125;DHT22;38119;52.710;6.398;2023-07-02T10:20:10;18.00;99.70
52125;DHT22;38119;52.710;6.398;2023-07-02T10:38:36;18.90;96.00
52125;DHT22;38119;52.710;6.398;2023-07-02T11:14:49;21.30;84.90
52125;DHT22;38119;52.710;6.398;2023-07-02T11:17:14;21.10;85.20
52125;DHT22;38119;52.710;6.398;2023-07-02T11:19:40;20.90;86.00
52125;DHT22;38119;52.710;6.398;2023-07-02T11:22:06;20.70;86.70
52125;DHT22;38119;52.710;6.398;2023-07-02T11:24:32;20.70;89.90
52125;DHT22;38119;52.710;6.398;2023-07-02T11:27:08;21.00;89.60
52125;DHT22;38119;52.710;6.398;2023-07-02T11:29:35;21.10;86.90
52125;DHT22;38119;52.710;6.398;2023-07-02T11:32:11;21.40;86.50
52125;DHT22;38119;52.710;6.398;2023-07-02T11:34:38;21.50;85.20
52125;DHT22;38119;52.710;6.398;2023-07-02T11:37:04;21.60;84.70
52125;DHT22;38119;52.710;6.398;2023-07-02T11:39:30;21.60;83.40
52125;DHT22;38119;52.710;6.398;2023-07-02T11:41:56;21.70;84.60
52125;DHT22;38119;52.710;6.398;2023-07-02T11:44:22;21.80;80.10
52125;DHT22;38119;52.710;6.398;2023-07-02T11:46:48;21.60;79.30
52125;DHT22;38119;52.710;6.398;2023-07-02T11:49:14;21.40;80.70
52125;DHT22;38119;52.710;6.398;2023-07-02T11:51:41;21.10;81.70
52125;DHT22;38119;52.710;6.398;2023-07-02T11:54:12;21.00;82.10
52125;DHT22;38119;52.710;6.398;2023-07-02T11:56:37;20.90;83.20
52125;DHT22;38119;52.710;6.398;2023-07-02T11:59:03;20.90;83.00
52125;DHT22;38119;52.710;6.398;2023-07-02T12:01:29;20.80;81.00
52125;DHT22;38119;52.710;6.398;2023-07-02T12:03:55;20.50;82.40
52125;DHT22;38119;52.710;6.398;2023-07-02T12:06:20;20.40;82.00
52125;DHT22;38119;52.710;6.398;2023-07-02T12:08:46;20.30;82.70
52125;DHT22;38119;52.710;6.398;2023-07-02T12:11:12;20.30;82.30
52125;DHT22;38119;52.710;6.398;2023-07-02T12:13:37;20.30;79.30
52125;DHT22;38119;52.710;6.398;2023-07-02T12:16:03;20.10;80.80
52125;DHT22;38119;52.710;6.398;2023-07-02T12:18:29;20.10;81.30
52125;DHT22;38119;52.710;6.398;2023-07-02T12:20:54;20.10;82.80
52125;DHT22;38119;52.710;6.398;2023-07-02T12:23:20;20.10;81.90
52125;DHT22;38119;52.710;6.398;2023-07-02T12:25:46;20.10;84.10
52125;DHT22;38119;52.710;6.398;2023-07-02T12:28:11;20.20;83.60
52125;DHT22;38119;52.710;6.398;2023-07-02T12:30:37;20.30;82.00
52125;DHT22;38119;52.710;6.398;2023-07-02T12:33:02;20.30;82.40
52125;DHT22;38119;52.710;6.398;2023-07-02T12:35:28;20.20;80.40
52125;DHT22;38119;52.710;6.398;2023-07-02T12:37:54;20.10;80.60
52125;DHT22;38119;52.710;6.398;2023-07-02T12:40:20;20.00;80.70
52125;DHT22;38119;52.710;6.398;2023-07-02T12:42:47;19.60;81.60
52125;DHT22;38119;52.710;6.398;2023-07-02T12:45:14;19.90;81.30
52125;DHT22;38119;52.710;6.398;2023-07-02T12:47:41;19.90;83.20
52125;DHT22;38119;52.710;6.398;2023-07-02T12:50:08;20.00;80.90
52125;DHT22;38119;52.710;6.398;2023-07-02T12:52:34;19.50;80.20
52125;DHT22;38119;52.710;6.398;2023-07-02T12:55:00;19.80;81.80
52125;DHT22;38119;52.710;6.398;2023-07-02T12:57:26;19.80;81.30
52125;DHT22;38119;52.710;6.398;2023-07-02T12:59:55;19.70;81.10
52125;DHT22;38119;52.710;6.398;2023-07-02T13:02:22;19.70;81.40
52125;DHT22;38119;52.710;6.398;2023-07-02T13:04:48;19.90;83.50
52125;DHT22;38119;52.710;6.398;2023-07-02T13:07:14;20.10;79.20
52125;DHT22;38119;52.710;6.398;2023-07-02T13:09:40;20.50;75.70
52125;DHT22;38119;52.710;6.398;2023-07-02T13:12:06;20.90;70.00
52125;DHT22;38119;52.710;6.398;2023-07-02T13:14:33;21.00;69.40
52125;DHT22;38119;52.710;6.398;2023-07-02T13:16:58;21.20;70.70
52125;DHT22;38119;52.710;6.398;2023-07-02T13:19:30;21.40;71.00
52125;DHT22;38119;52.710;6.398;2023-07-02T13:21:56;21.60;70.30
52125;DHT22;38119;52.710;6.398;2023-07-02T13:24:21;21.60;69.50
52125;DHT22;38119;52.710;6.398;2023-07-02T13:26:47;21.70;70.00
52125;DHT22;38119;52.710;6.398;2023-07-02T13:29:13;21.70;70.30
52125;DHT22;38119;52.710;6.398;2023-07-02T13:31:39;21.80;68.20
52125;DHT22;38119;52.710;6.398;2023-07-02T13:34:05;21.70;67.30
52125;DHT22;38119;52.710;6.398;2023-07-02T13:36:30;21.60;67.50
52125;DHT22;38119;52.710;6.398;2023-07-02T13:38:56;21.60;67.00
52125;DHT22;38119;52.710;6.398;2023-07-02T13:41:22;21.70;67.80
52125;DHT22;38119;52.710;6.398;2023-07-02T13:43:47;21.80;67.10
52125;DHT22;38119;52.710;6.398;2023-07-02T13:46:13;21.90;65.40
52125;DHT22;38119;52.710;6.398;2023-07-02T13:48:39;21.80;66.20
52125;DHT22;38119;52.710;6.398;2023-07-02T13:51:05;21.70;67.60
52125;DHT22;38119;52.710;6.398;2023-07-02T13:53:31;21.60;67.60
52125;DHT22;38119;52.710;6.398;2023-07-02T13:55:57;21.30;67.50
52125;DHT22;38119;52.710;6.398;2023-07-02T13:58:23;21.40;68.20
52125;DHT22;38119;52.710;6.398;2023-07-02T14:00:49;21.20;68.10
52125;DHT22;38119;52.710;6.398;2023-07-02T14:03:14;21.10;68.80
52125;DHT22;38119;52.710;6.398;2023-07-02T14:05:40;21.10;69.50
52125;DHT22;38119;52.710;6.398;2023-07-02T14:08:06;21.10;70.10
52125;DHT22;38119;52.710;6.398;2023-07-02T14:10:32;21.00;70.90
52125;DHT22;38119;52.710;6.398;2023-07-02T14:12:57;20.90;70.20
52125;DHT22;38119;52.710;6.398;2023-07-02T14:15:25;20.80;70.90
52125;DHT22;38119;52.710;6.398;2023-07-02T14:17:50;20.70;71.60
52125;DHT22;38119;52.710;6.398;2023-07-02T14:20:16;20.60;73.30
52125;DHT22;38119;52.710;6.398;2023-07-02T14:22:42;20.70;73.70
52125;DHT22;38119;52.710;6.398;2023-07-02T14:25:08;20.80;71.00
52125;DHT22;38119;52.710;6.398;2023-07-02T14:27:34;20.80;69.20
52125;DHT22;38119;52.710;6.398;2023-07-02T14:29:59;20.80;68.80
52125;DHT22;38119;52.710;6.398;2023-07-02T14:32:27;20.80;68.60
52125;DHT22;38119;52.710;6.398;2023-07-02T14:34:53;20.70;68.40
52125;DHT22;38119;52.710;6.398;2023-07-02T14:37:19;20.70;69.50
52125;DHT22;38119;52.710;6.398;2023-07-02T14:39:44;20.60;70.70
52125;DHT22;38119;52.710;6.398;2023-07-02T14:42:10;20.50;71.60
52125;DHT22;38119;52.710;6.398;2023-07-02T14:44:35;20.50;71.80
52125;DHT22;38119;52.710;6.398;2023-07-02T14:47:01;20.60;70.60
52125;DHT22;38119;52.710;6.398;2023-07-02T14:49:27;20.70;69.80
52125;DHT22;38119;52.710;6.398;2023-07-02T14:51:52;20.70;70.10
52125;DHT22;38119;52.710;6.398;2023-07-02T14:54:18;20.70;70.30
52125;DHT22;38119;52.710;6.398;2023-07-02T14:56:44;20.60;70.00
52125;DHT22;38119;52.710;6.398;2023-07-02T14:59:10;20.50;70.90
52125;DHT22;38119;52.710;6.398;2023-07-02T15:01:35;20.40;71.40
52125;DHT22;38119;52.710;6.398;2023-07-02T15:04:01;20.40;70.70
52125;DHT22;38119;52.710;6.398;2023-07-02T15:06:26;20.30;71.30
52125;DHT22;38119;52.710;6.398;2023-07-02T15:08:52;20.20;70.30
52125;DHT22;38119;52.710;6.398;2023-07-02T15:11:18;20.10;69.60
52125;DHT22;38119;52.710;6.398;2023-07-02T15:13:44;20.00;70.20
52125;DHT22;38119;52.710;6.398;2023-07-02T15:16:11;20.00;69.20
52125;DHT22;38119;52.710;6.398;2023-07-02T15:18:38;20.00;69.90
52125;DHT22;38119;52.710;6.398;2023-07-02T15:21:04;19.80;70.50
52125;DHT22;38119;52.710;6.398;2023-07-02T15:23:30;19.90;71.60
52125;DHT22;38119;52.710;6.398;2023-07-02T15:25:58;20.00;71.50
52125;DHT22;38119;52.710;6.398;2023-07-02T15:28:24;20.20;71.10
52125;DHT22;38119;52.710;6.398;2023-07-02T15:30:55;20.30;71.20
52125;DHT22;38119;52.710;6.398;2023-07-02T15:33:21;20.30;71.50
52125;DHT22;38119;52.710;6.398;2023-07-02T15:35:47;20.30;69.80
52125;DHT22;38119;52.710;6.398;2023-07-02T15:38:13;20.40;71.90
52125;DHT22;38119;52.710;6.398;2023-07-02T15:40:38;20.40;70.10
52125;DHT22;38119;52.710;6.398;2023-07-02T15:43:04;20.30;70.00
52125;DHT22;38119;52.710;6.398;2023-07-02T15:45:30;20.30;70.10
52125;DHT22;38119;52.710;6.398;2023-07-02T15:47:55;20.30;71.40
52125;DHT22;38119;52.710;6.398;2023-07-02T15:50:23;20.40;70.10
52125;DHT22;38119;52.710;6.398;2023-07-02T15:52:49;20.50;71.00
52125;DHT22;38119;52.710;6.398;2023-07-02T15:55:20;20.60;71.40
52125;DHT22;38119;52.710;6.398;2023-07-02T15:57:46;20.60;72.00
52125;DHT22;38119;52.710;6.398;2023-07-02T16:00:12;20.60;72.80
52125;DHT22;38119;52.710;6.398;2023-07-02T16:02:39;20.60;71.50
52125;DHT22;38119;52.710;6.398;2023-07-02T16:05:05;20.60;70.90
52125;DHT22;38119;52.710;6.398;2023-07-02T16:07:31;20.50;69.60
52125;DHT22;38119;52.710;6.398;2023-07-02T16:09:58;20.50;69.40
52125;DHT22;38119;52.710;6.398;2023-07-02T16:12:24;20.50;69.60
52125;DHT22;38119;52.710;6.398;2023-07-02T16:14:50;20.50;69.60
52125;DHT22;38119;52.710;6.398;2023-07-02T16:17:16;20.50;69.40
52125;DHT22;38119;52.710;6.398;2023-07-02T16:19:42;20.40;68.00
52125;DHT22;38119;52.710;6.398;2023-07-02T16:22:08;20.30;67.30
52125;DHT22;38119;52.710;6.398;2023-07-02T16:24:33;20.20;68.00
52125;DHT22;38119;52.710;6.398;2023-07-02T16:26:59;20.20;69.00
52125;DHT22;38119;52.710;6.398;2023-07-02T16:29:27;20.20;68.70
52125;DHT22;38119;52.710;6.398;2023-07-02T16:31:56;20.20;66.00
52125;DHT22;38119;52.710;6.398;2023-07-02T16:34:23;20.10;66.30
52125;DHT22;38119;52.710;6.398;2023-07-02T16:36:49;20.10;65.90
52125;DHT22;38119;52.710;6.398;2023-07-02T16:39:16;20.00;66.40
52125;DHT22;38119;52.710;6.398;2023-07-02T16:41:42;19.90;67.20
52125;DHT22;38119;52.710;6.398;2023-07-02T16:46:48;19.80;66.40
52125;DHT22;38119;52.710;6.398;2023-07-02T16:49:14;19.70;66.20
52125;DHT22;38119;52.710;6.398;2023-07-02T16:51:41;19.60;66.90
52125;DHT22;38119;52.710;6.398;2023-07-02T16:54:12;19.60;67.60
52125;DHT22;38119;52.710;6.398;2023-07-02T16:56:49;19.70;67.90
52125;DHT22;38119;52.710;6.398;2023-07-02T16:59:15;19.60;66.90
52125;DHT22;38119;52.710;6.398;2023-07-02T17:01:48;19.50;67.20
52125;DHT22;38119;52.710;6.398;2023-07-02T17:04:14;19.50;68.50
52125;DHT22;38119;52.710;6.398;2023-07-02T17:06:54;19.40;69.50
52125;DHT22;38119;52.710;6.398;2023-07-02T17:12:07;19.40;71.50
52125;DHT22;38119;52.710;6.398;2023-07-02T17:14:35;19.40;72.30
52125;DHT22;38119;52.710;6.398;2023-07-02T17:17:06;19.30;73.10
52125;DHT22;38119;52.710;6.398;2023-07-02T17:19:35;19.30;72.80
52125;DHT22;38119;52.710;6.398;2023-07-02T17:22:02;19.40;73.30
52125;DHT22;38119;52.710;6.398;2023-07-02T17:24:32;19.40;74.00
52125;DHT22;38119;52.710;6.398;2023-07-02T17:26:58;19.40;74.40
52125;DHT22;38119;52.710;6.398;2023-07-02T17:29:24;19.40;74.20
52125;DHT22;38119;52.710;6.398;2023-07-02T17:31:55;19.30;74.10
52125;DHT22;38119;52.710;6.398;2023-07-02T17:34:26;19.40;75.30
52125;DHT22;38119;52.710;6.398;2023-07-02T17:36:55;19.40;75.40
52125;DHT22;38119;52.710;6.398;2023-07-02T17:39:21;19.40;73.90
52125;DHT22;38119;52.710;6.398;2023-07-02T17:41:48;19.40;73.00
52125;DHT22;38119;52.710;6.398;2023-07-02T17:44:16;19.30;72.80
52125;DHT22;38119;52.710;6.398;2023-07-02T17:46:43;19.20;73.40
52125;DHT22;38119;52.710;6.398;2023-07-02T17:49:09;19.20;73.30
52125;DHT22;38119;52.710;6.398;2023-07-02T17:51:36;19.10;73.30
52125;DHT22;38119;52.710;6.398;2023-07-02T17:54:02;19.10;73.50
52125;DHT22;38119;52.710;6.398;2023-07-02T17:56:29;19.00;74.50
52125;DHT22;38119;52.710;6.398;2023-07-02T17:58:54;19.10;75.10
52125;DHT22;38119;52.710;6.398;2023-07-02T18:01:20;19.10;74.80
52125;DHT22;38119;52.710;6.398;2023-07-02T18:03:47;19.10;74.80
52125;DHT22;38119;52.710;6.398;2023-07-02T18:06:13;19.10;74.90
52125;DHT22;38119;52.710;6.398;2023-07-02T18:08:39;19.00;74.70
52125;DHT22;38119;52.710;6.398;2023-07-02T18:11:05;19.00;75.00
52125;DHT22;38119;52.710;6.398;2023-07-02T18:13:30;18.90;75.30
52125;DHT22;38119;52.710;6.398;2023-07-02T18:15:56;18.80;75.50
52125;DHT22;38119;52.710;6.398;2023-07-02T18:18:25;18.80;75.50
52125;DHT22;38119;52.710;6.398;2023-07-02T18:20:51;18.80;76.00
52125;DHT22;38119;52.710;6.398;2023-07-02T18:23:17;18.60;76.80
52125;DHT22;38119;52.710;6.398;2023-07-02T18:25:43;18.60;77.40
52125;DHT22;38119;52.710;6.398;2023-07-02T18:28:11;18.60;78.10
52125;DHT22;38119;52.710;6.398;2023-07-02T18:30:45;18.60;78.50
52125;DHT22;38119;52.710;6.398;2023-07-02T18:33:10;18.60;78.30
52125;DHT22;38119;52.710;6.398;2023-07-02T18:35:36;18.60;79.20
52125;DHT22;38119;52.710;6.398;2023-07-02T18:38:02;18.60;78.90
52125;DHT22;38119;52.710;6.398;2023-07-02T18:40:29;18.60;79.40
52125;DHT22;38119;52.710;6.398;2023-07-02T18:42:55;18.60;80.80
52125;DHT22;38119;52.710;6.398;2023-07-02T18:45:21;18.60;80.50
52125;DHT22;38119;52.710;6.398;2023-07-02T18:47:48;18.50;80.80
52125;DHT22;38119;52.710;6.398;2023-07-02T18:50:15;18.50;81.40
52125;DHT22;38119;52.710;6.398;2023-07-02T18:52:42;18.50;81.40
52125;DHT22;38119;52.710;6.398;2023-07-02T18:55:09;18.50;82.20
52125;DHT22;38119;52.710;6.398;2023-07-02T18:57:35;18.40;82.70
52125;DHT22;38119;52.710;6.398;2023-07-02T19:00:02;18.50;82.80
52125;DHT22;38119;52.710;6.398;2023-07-02T19:02:28;18.40;83.30
52125;DHT22;38119;52.710;6.398;2023-07-02T19:04:54;18.40;84.10
52125;DHT22;38119;52.710;6.398;2023-07-02T19:07:22;18.40;84.10
52125;DHT22;38119;52.710;6.398;2023-07-02T19:09:48;18.30;84.00
52125;DHT22;38119;52.710;6.398;2023-07-02T19:12:14;18.30;84.40
52125;DHT22;38119;52.710;6.398;2023-07-02T19:14:40;18.30;84.40
52125;DHT22;38119;52.710;6.398;2023-07-02T19:17:10;18.20;85.00
52125;DHT22;38119;52.710;6.398;2023-07-02T19:19:37;18.20;85.00
52125;DHT22;38119;52.710;6.398;2023-07-02T19:22:04;18.20;85.20
52125;DHT22;38119;52.710;6.398;2023-07-02T19:24:30;18.20;85.50
52125;DHT22;38119;52.710;6.398;2023-07-02T19:26:56;18.10;85.40
52125;DHT22;38119;52.710;6.398;2023-07-02T19:29:22;18.10;85.70
52125;DHT22;38119;52.710;6.398;2023-07-02T19:31:47;18.10;86.10
52125;DHT22;38119;52.710;6.398;2023-07-02T19:34:14;18.10;86.30
52125;DHT22;38119;52.710;6.398;2023-07-02T19:36:41;18.10;86.50
52125;DHT22;38119;52.710;6.398;2023-07-02T19:39:07;18.00;86.60
52125;DHT22;38119;52.710;6.398;2023-07-02T19:41:33;18.00;87.10
52125;DHT22;38119;52.710;6.398;2023-07-02T19:43:59;18.00;87.20
52125;DHT22;38119;52.710;6.398;2023-07-02T19:46:25;17.90;87.20
52125;DHT22;38119;52.710;6.398;2023-07-02T19:48:50;17.90;87.50
52125;DHT22;38119;52.710;6.398;2023-07-02T19:51:16;17.90;87.90
52125;DHT22;38119;52.710;6.398;2023-07-02T19:53:42;17.90;88.10
52125;DHT22;38119;52.710;6.398;2023-07-02T19:56:09;17.90;88.10
52125;DHT22;38119;52.710;6.398;2023-07-02T19:58:36;17.90;88.30
52125;DHT22;38119;52.710;6.398;2023-07-02T20:01:02;17.80;88.50
52125;DHT22;38119;52.710;6.398;2023-07-02T20:03:28;17.80;88.90
52125;DHT22;38119;52.710;6.398;2023-07-02T20:05:54;17.80;88.90
52125;DHT22;38119;52.710;6.398;2023-07-02T20:08:19;17.80;89.10
52125;DHT22;38119;52.710;6.398;2023-07-02T20:10:45;17.80;89.30
52125;DHT22;38119;52.710;6.398;2023-07-02T20:13:11;17.80;89.70
52125;DHT22;38119;52.710;6.398;2023-07-02T20:15:36;17.70;89.90
52125;DHT22;38119;52.710;6.398;2023-07-02T20:18:02;17.70;90.20
52125;DHT22;38119;52.710;6.398;2023-07-02T20:20:29;17.70;90.30
52125;DHT22;38119;52.710;6.398;2023-07-02T20:22:56;17.70;90.60
52125;DHT22;38119;52.710;6.398;2023-07-02T20:25:22;17.70;90.60
52125;DHT22;38119;52.710;6.398;2023-07-02T20:27:50;17.70;90.70
52125;DHT22;38119;52.710;6.398;2023-07-02T20:30:16;17.70;90.70
52125;DHT22;38119;52.710;6.398;2023-07-02T20:32:42;17.70;90.80
52125;DHT22;38119;52.710;6.398;2023-07-02T20:35:08;17.60;90.90
52125;DHT22;38119;52.710;6.398;2023-07-02T20:37:34;17.60;90.90
52125;DHT22;38119;52.710;6.398;2023-07-02T20:40:00;17.60;90.80
52125;DHT22;38119;52.710;6.398;2023-07-02T20:42:39;17.60;90.80
52125;DHT22;38119;52.710;6.398;2023-07-02T20:45:07;17.60;90.90
52125;DHT22;38119;52.710;6.398;2023-07-02T20:47:33;17.60;91.00
52125;DHT22;38119;52.710;6.398;2023-07-02T20:50:02;17.60;91.20
52125;DHT22;38119;52.710;6.398;2023-07-02T20:52:28;17.60;91.20
52125;DHT22;38119;52.710;6.398;2023-07-02T20:54:54;17.50;91.20
52125;DHT22;38119;52.710;6.398;2023-07-02T20:57:21;17.50;91.30
52125;DHT22;38119;52.710;6.398;2023-07-02T20:59:48;17.50;91.20
52125;DHT22;38119;52.710;6.398;2023-07-02T21:02:15;17.50;91.20
52125;DHT22;38119;52.710;6.398;2023-07-02T21:04:41;17.50;91.10
52125;DHT22;38119;52.710;6.398;2023-07-02T21:07:06;17.50;91.10
52125;DHT22;38119;52.710;6.398;2023-07-02T21:09:32;17.50;91.20
52125;DHT22;38119;52.710;6.398;2023-07-02T21:11:58;17.50;91.30
52125;DHT22;38119;52.710;6.398;2023-07-02T21:14:24;17.40;91.30
52125;DHT22;38119;52.710;6.398;2023-07-02T21:16:50;17.50;91.40
52125;DHT22;38119;52.710;6.398;2023-07-02T21:19:16;17.50;91.60
52125;DHT22;38119;52.710;6.398;2023-07-02T21:21:42;17.40;91.60
52125;DHT22;38119;52.710;6.398;2023-07-02T21:24:11;17.40;91.80
52125;DHT22;38119;52.710;6.398;2023-07-02T21:26:37;17.40;91.90
52125;DHT22;38119;52.710;6.398;2023-07-02T21:29:03;17.40;92.00
52125;DHT22;38119;52.710;6.398;2023-07-02T21:31:29;17.40;92.20
52125;DHT22;38119;52.710;6.398;2023-07-02T21:33:55;17.40;92.30